Colmslie — VJN3166 — position and weather

sailwx.info

Track history (hours):
 
Tides and Currents Weather Stations Pressure Air Temp Water Temp Dewpoint Dewpoint Depression Visibility Wind Speed Wind Dir Waves Ship Positions

Colmslie

Last reported at 2018-Apr-18 19:28 UTC. Time now 2018-Apr-19 11:45 UTC.
Position S 27°22' E 153°10'.

Length 22 m; draft 5.4 m.

Type: Tug. MMSI: 503194500.

Date/timePositionNaut miles runAvg speedWind from/ knotsBaromVisibWave heightAir tempDewpointWater temp
2018-Apr-18 19:28S 27°22' E 153°10'2 0.2
2018-Apr-18 08:17S 27°24' E 153°09'2 0.5
2018-Apr-18 04:26S 27°22' E 153°10'0 0.0
2018-Apr-17 23:19S 27°22' E 153°10'0 1.6
2018-Apr-17 23:01S 27°22' E 153°11'0 1.0
2018-Apr-17 22:30S 27°22' E 153°10'0 0.8
2018-Apr-17 21:58S 27°22' E 153°10'1 1.7
2018-Apr-17 21:27S 27°23' E 153°09'1 0.1
2018-Apr-17 14:16S 27°24' E 153°09'1 5.2
2018-Apr-17 14:00S 27°23' E 153°10'1 2.6
2018-Apr-17 13:30S 27°22' E 153°11'0 0.3
2018-Apr-17 12:56S 27°22' E 153°11'0 0.5
2018-Apr-17 12:29S 27°22' E 153°10'0 0.0
2018-Apr-17 11:44S 27°22' E 153°10'0 0.0
2018-Apr-17 11:09S 27°22' E 153°10'0 0.0
2018-Apr-17 11:01S 27°22' E 153°10'0 0.5
2018-Apr-17 10:31S 27°22' E 153°10'1 1.1
2018-Apr-17 09:58S 27°23' E 153°10'0 0.0
2018-Apr-17 09:29S 27°23' E 153°10'1 2.7
2018-Apr-17 09:00S 27°22' E 153°11'1 0.1
2018-Apr-16 23:04S 27°22' E 153°10'0 0.3
2018-Apr-16 22:07S 27°23' E 153°10'1 0.9
2018-Apr-16 21:07S 27°23' E 153°09'1 1.0
2018-Apr-16 20:21S 27°24' E 153°09'4 7.6
2018-Apr-16 19:50S 27°27' E 153°06'1 1.9
2018-Apr-16 19:15S 27°27' E 153°05'3 7.0
2018-Apr-16 18:45S 27°25' E 153°08'3 7.1
2018-Apr-16 18:19S 27°23' E 153°10'0 0.0
2018-Apr-16 16:34S 27°23' E 153°10'0 0.0
2018-Apr-16 16:30S 27°23' E 153°10'1 2.2
2018-Apr-16 16:00S 27°22' E 153°11'0 0.0
2018-Apr-16 15:30S 27°22' E 153°11'1 2.1
2018-Apr-16 15:00S 27°22' E 153°10'0 0.0
2018-Apr-16 12:47S 27°23' E 153°10'0 0.0
2018-Apr-16 12:26S 27°23' E 153°10'0 0.0
2018-Apr-16 11:59S 27°23' E 153°10'0 0.3
2018-Apr-16 11:27S 27°22' E 153°10'0 0.6
2018-Apr-16 10:59S 27°22' E 153°10'1 2.4
2018-Apr-16 10:29S 27°23' E 153°09'1 0.6
2018-Apr-16 08:56S 27°24' E 153°09'0 0.0
2018-Apr-16 08:29S 27°24' E 153°09'0 0.0
2018-Apr-16 08:00S 27°24' E 153°09'0 0.0
2018-Apr-16 07:30S 27°24' E 153°09'0 0.0
2018-Apr-16 07:00S 27°24' E 153°09'1 2.4
2018-Apr-16 06:30S 27°25' E 153°09'3 0.8
2018-Apr-16 02:15S 27°22' E 153°10'1 1.0
2018-Apr-16 01:13S 27°21' E 153°11'3 6.2
2018-Apr-16 00:44S 27°24' E 153°09'2 1.2
2018-Apr-15 22:38S 27°26' E 153°08'0 0.0
2018-Apr-15 22:26S 27°26' E 153°08'2 3.4
2018-Apr-15 21:58S 27°27' E 153°06'4 1.7
2018-Apr-15 19:41S 27°24' E 153°09'0 0.0
2018-Apr-15 19:26S 27°24' E 153°09'0 0.0
2018-Apr-15 18:59S 27°24' E 153°09'0 0.0
2018-Apr-15 18:29S 27°24' E 153°09'0 0.0
2018-Apr-15 17:59S 27°24' E 153°09'0 0.0
2018-Apr-15 17:26S 27°24' E 153°09'0 0.0
2018-Apr-15 16:59S 27°24' E 153°09'0 0.3
2018-Apr-15 16:30S 27°24' E 153°09'4 7.7
2018-Apr-15 16:00S 27°27' E 153°06'1 2.1
2018-Apr-15 15:30S 27°27' E 153°05'3 4.4
2018-Apr-15 14:52S 27°26' E 153°08'0 0.6
2018-Apr-15 14:28S 27°26' E 153°08'1 2.8
2018-Apr-15 14:00S 27°25' E 153°09'1 2.0
2018-Apr-15 13:30S 27°24' E 153°09'0 0.0
2018-Apr-15 13:00S 27°24' E 153°09'1 2.3
2018-Apr-15 12:25S 27°23' E 153°10'3 7.7
2018-Apr-15 11:58S 27°26' E 153°08'1 0.7
2018-Apr-15 11:00S 27°25' E 153°08'2 3.5
2018-Apr-15 10:22S 27°23' E 153°09'1 3.1
2018-Apr-15 09:57S 27°22' E 153°10'0 0.1
2018-Apr-15 08:50S 27°22' E 153°10'1 2.5
2018-Apr-15 08:18S 27°23' E 153°09'1 0.1
2018-Apr-14 20:16S 27°24' E 153°09'2 8.2
2018-Apr-14 19:58S 27°26' E 153°07'1 1.7
2018-Apr-14 19:07S 27°27' E 153°06'6 7.3
2018-Apr-14 18:19S 27°22' E 153°10'1 4.7
2018-Apr-14 18:00S 27°23' E 153°09'1 0.0
2018-Apr-13 10:59S 27°24' E 153°09'1 0.5
2018-Apr-13 09:32S 27°23' E 153°09'0 3.1
2018-Apr-13 09:28S 27°23' E 153°10'2 3.5
2018-Apr-13 09:00S 27°22' E 153°11'0 0.7
2018-Apr-13 08:26S 27°21' E 153°11'1 1.4
2018-Apr-13 08:00S 27°21' E 153°11'3 3.7
2018-Apr-13 07:16S 27°23' E 153°09'1 2.5
2018-Apr-13 06:55S 27°22' E 153°10'2 0.1
2018-Apr-12 10:20S 27°24' E 153°09'4 8.0
2018-Apr-12 09:51S 27°27' E 153°06'0 0.4
2018-Apr-12 09:17S 27°27' E 153°06'6 1.3
2018-Apr-12 04:36S 27°22' E 153°10'0 1.3
2018-Apr-12 04:24S 27°22' E 153°10'1 1.3
2018-Apr-12 03:59S 27°22' E 153°11'1 0.0
2018-Apr-10 17:03S 27°22' E 153°10'1 3.2
2018-Apr-10 16:46S 27°21' E 153°11'1 4.6
2018-Apr-10 16:29S 27°23' E 153°10'0 0.0
2018-Apr-10 16:00S 27°23' E 153°10'0 0.0
2018-Apr-10 15:29S 27°23' E 153°10'0 0.0
2018-Apr-10 15:00S 27°23' E 153°10'0 0.0
2018-Apr-10 14:29S 27°23' E 153°10'0 0.0
2018-Apr-10 13:59S 27°23' E 153°10'0 0.0
2018-Apr-10 13:29S 27°23' E 153°10'0 0.0
2018-Apr-10 13:00S 27°23' E 153°10'0 0.0
2018-Apr-10 12:27S 27°23' E 153°10'0 0.0
2018-Apr-10 11:42S 27°23' E 153°10'0 0.0
2018-Apr-10 11:28S 27°23' E 153°10'0 0.3
2018-Apr-10 11:00S 27°22' E 153°10'1 0.1
2018-Apr-09 21:57S 27°22' E 153°11'3 0.6
2018-Apr-09 17:24S 27°24' E 153°09'0 0.0
2018-Apr-09 17:00S 27°24' E 153°09'1 1.4
2018-Apr-09 16:30S 27°25' E 153°09'0 0.5
2018-Apr-09 15:58S 27°25' E 153°09'1 2.2
2018-Apr-09 15:30S 27°24' E 153°09'0 0.0
2018-Apr-09 14:45S 27°24' E 153°09'0 0.0
2018-Apr-09 14:30S 27°24' E 153°09'2 4.2
2018-Apr-09 14:00S 27°22' E 153°10'0 0.4
2018-Apr-09 13:30S 27°22' E 153°10'0 0.1
2018-Apr-09 13:00S 27°22' E 153°10'1 2.6
2018-Apr-09 12:30S 27°23' E 153°09'1 0.8
2018-Apr-09 11:20S 27°24' E 153°09'0 0.0
2018-Apr-09 09:23S 27°24' E 153°09'2 4.7
2018-Apr-09 09:00S 27°22' E 153°10'0 0.4
2018-Apr-09 08:29S 27°22' E 153°10'1 0.1
2018-Apr-08 21:50S 27°23' E 153°10'1 1.7
2018-Apr-08 21:08S 27°22' E 153°10'0 0.7
2018-Apr-08 21:00S 27°22' E 153°10'  
Track history (hours):
 
Tides and Currents Weather Stations Pressure Air Temp Water Temp Dewpoint Dewpoint Depression Visibility Wind Speed Wind Dir Waves Ship Positions

Colmslie

Last reported at 2018-Apr-18 19:28 UTC. Time now 2018-Apr-19 11:45 UTC.
Position S 27°22' E 153°10'.

Length 22 m; draft 5.4 m.

Type: Tug. MMSI: 503194500.

Date/timePositionNaut miles runAvg speedWind from/ knotsBaromVisibWave heightAir tempDewpointWater temp
2018-Apr-18 19:28S 27°22' E 153°10'2 0.2
2018-Apr-18 08:17S 27°24' E 153°09'2 0.5
2018-Apr-18 04:26S 27°22' E 153°10'0 0.0
2018-Apr-17 23:19S 27°22' E 153°10'0 1.6
2018-Apr-17 23:01S 27°22' E 153°11'0 1.0
2018-Apr-17 22:30S 27°22' E 153°10'0 0.8
2018-Apr-17 21:58S 27°22' E 153°10'1 1.7
2018-Apr-17 21:27S 27°23' E 153°09'1 0.1
2018-Apr-17 14:16S 27°24' E 153°09'1 5.2
2018-Apr-17 14:00S 27°23' E 153°10'1 2.6
2018-Apr-17 13:30S 27°22' E 153°11'0 0.3
2018-Apr-17 12:56S 27°22' E 153°11'0 0.5
2018-Apr-17 12:29S 27°22' E 153°10'0 0.0
2018-Apr-17 11:44S 27°22' E 153°10'0 0.0
2018-Apr-17 11:09S 27°22' E 153°10'0 0.0
2018-Apr-17 11:01S 27°22' E 153°10'0 0.5
2018-Apr-17 10:31S 27°22' E 153°10'1 1.1
2018-Apr-17 09:58S 27°23' E 153°10'0 0.0
2018-Apr-17 09:29S 27°23' E 153°10'1 2.7
2018-Apr-17 09:00S 27°22' E 153°11'1 0.1
2018-Apr-16 23:04S 27°22' E 153°10'0 0.3
2018-Apr-16 22:07S 27°23' E 153°10'1 0.9
2018-Apr-16 21:07S 27°23' E 153°09'1 1.0
2018-Apr-16 20:21S 27°24' E 153°09'4 7.6
2018-Apr-16 19:50S 27°27' E 153°06'1 1.9
2018-Apr-16 19:15S 27°27' E 153°05'3 7.0
2018-Apr-16 18:45S 27°25' E 153°08'3 7.1
2018-Apr-16 18:19S 27°23' E 153°10'0 0.0
2018-Apr-16 16:34S 27°23' E 153°10'0 0.0
2018-Apr-16 16:30S 27°23' E 153°10'1 2.2
2018-Apr-16 16:00S 27°22' E 153°11'0 0.0
2018-Apr-16 15:30S 27°22' E 153°11'1 2.1
2018-Apr-16 15:00S 27°22' E 153°10'0 0.0
2018-Apr-16 12:47S 27°23' E 153°10'0 0.0
2018-Apr-16 12:26S 27°23' E 153°10'0 0.0
2018-Apr-16 11:59S 27°23' E 153°10'0 0.3
2018-Apr-16 11:27S 27°22' E 153°10'0 0.6
2018-Apr-16 10:59S 27°22' E 153°10'1 2.4
2018-Apr-16 10:29S 27°23' E 153°09'1 0.6
2018-Apr-16 08:56S 27°24' E 153°09'0 0.0
2018-Apr-16 08:29S 27°24' E 153°09'0 0.0
2018-Apr-16 08:00S 27°24' E 153°09'0 0.0
2018-Apr-16 07:30S 27°24' E 153°09'0 0.0
2018-Apr-16 07:00S 27°24' E 153°09'1 2.4
2018-Apr-16 06:30S 27°25' E 153°09'3 0.8
2018-Apr-16 02:15S 27°22' E 153°10'1 1.0
2018-Apr-16 01:13S 27°21' E 153°11'3 6.2
2018-Apr-16 00:44S 27°24' E 153°09'2 1.2
2018-Apr-15 22:38S 27°26' E 153°08'0 0.0
2018-Apr-15 22:26S 27°26' E 153°08'2 3.4
2018-Apr-15 21:58S 27°27' E 153°06'4 1.7
2018-Apr-15 19:41S 27°24' E 153°09'0 0.0
2018-Apr-15 19:26S 27°24' E 153°09'0 0.0
2018-Apr-15 18:59S 27°24' E 153°09'0 0.0
2018-Apr-15 18:29S 27°24' E 153°09'0 0.0
2018-Apr-15 17:59S 27°24' E 153°09'0 0.0
2018-Apr-15 17:26S 27°24' E 153°09'0 0.0
2018-Apr-15 16:59S 27°24' E 153°09'0 0.3
2018-Apr-15 16:30S 27°24' E 153°09'4 7.7
2018-Apr-15 16:00S 27°27' E 153°06'1 2.1
2018-Apr-15 15:30S 27°27' E 153°05'3 4.4
2018-Apr-15 14:52S 27°26' E 153°08'0 0.6
2018-Apr-15 14:28S 27°26' E 153°08'1 2.8
2018-Apr-15 14:00S 27°25' E 153°09'1 2.0
2018-Apr-15 13:30S 27°24' E 153°09'0 0.0
2018-Apr-15 13:00S 27°24' E 153°09'1 2.3
2018-Apr-15 12:25S 27°23' E 153°10'3 7.7
2018-Apr-15 11:58S 27°26' E 153°08'1 0.7
2018-Apr-15 11:00S 27°25' E 153°08'2 3.5
2018-Apr-15 10:22S 27°23' E 153°09'1 3.1
2018-Apr-15 09:57S 27°22' E 153°10'0 0.1
2018-Apr-15 08:50S 27°22' E 153°10'1 2.5
2018-Apr-15 08:18S 27°23' E 153°09'1 0.1
2018-Apr-14 20:16S 27°24' E 153°09'2 8.2
2018-Apr-14 19:58S 27°26' E 153°07'1 1.7
2018-Apr-14 19:07S 27°27' E 153°06'6 7.3
2018-Apr-14 18:19S 27°22' E 153°10'1 4.7
2018-Apr-14 18:00S 27°23' E 153°09'1 0.0
2018-Apr-13 10:59S 27°24' E 153°09'1 0.5
2018-Apr-13 09:32S 27°23' E 153°09'0 3.1
2018-Apr-13 09:28S 27°23' E 153°10'2 3.5
2018-Apr-13 09:00S 27°22' E 153°11'0 0.7
2018-Apr-13 08:26S 27°21' E 153°11'1 1.4
2018-Apr-13 08:00S 27°21' E 153°11'3 3.7
2018-Apr-13 07:16S 27°23' E 153°09'1 2.5
2018-Apr-13 06:55S 27°22' E 153°10'2 0.1
2018-Apr-12 10:20S 27°24' E 153°09'4 8.0
2018-Apr-12 09:51S 27°27' E 153°06'0 0.4
2018-Apr-12 09:17S 27°27' E 153°06'6 1.3
2018-Apr-12 04:36S 27°22' E 153°10'0 1.3
2018-Apr-12 04:24S 27°22' E 153°10'1 1.3
2018-Apr-12 03:59S 27°22' E 153°11'1 0.0
2018-Apr-10 17:03S 27°22' E 153°10'1 3.2
2018-Apr-10 16:46S 27°21' E 153°11'1 4.6
2018-Apr-10 16:29S 27°23' E 153°10'0 0.0
2018-Apr-10 16:00S 27°23' E 153°10'0 0.0
2018-Apr-10 15:29S 27°23' E 153°10'0 0.0
2018-Apr-10 15:00S 27°23' E 153°10'0 0.0
2018-Apr-10 14:29S 27°23' E 153°10'0 0.0
2018-Apr-10 13:59S 27°23' E 153°10'0 0.0
2018-Apr-10 13:29S 27°23' E 153°10'0 0.0
2018-Apr-10 13:00S 27°23' E 153°10'0 0.0
2018-Apr-10 12:27S 27°23' E 153°10'0 0.0
2018-Apr-10 11:42S 27°23' E 153°10'0 0.0
2018-Apr-10 11:28S 27°23' E 153°10'0 0.3
2018-Apr-10 11:00S 27°22' E 153°10'1 0.1
2018-Apr-09 21:57S 27°22' E 153°11'3 0.6
2018-Apr-09 17:24S 27°24' E 153°09'0 0.0
2018-Apr-09 17:00S 27°24' E 153°09'1 1.4
2018-Apr-09 16:30S 27°25' E 153°09'0 0.5
2018-Apr-09 15:58S 27°25' E 153°09'1 2.2
2018-Apr-09 15:30S 27°24' E 153°09'0 0.0
2018-Apr-09 14:45S 27°24' E 153°09'0 0.0
2018-Apr-09 14:30S 27°24' E 153°09'2 4.2
2018-Apr-09 14:00S 27°22' E 153°10'0 0.4
2018-Apr-09 13:30S 27°22' E 153°10'0 0.1
2018-Apr-09 13:00S 27°22' E 153°10'1 2.6
2018-Apr-09 12:30S 27°23' E 153°09'1 0.8
2018-Apr-09 11:20S 27°24' E 153°09'0 0.0
2018-Apr-09 09:23S 27°24' E 153°09'2 4.7
2018-Apr-09 09:00S 27°22' E 153°10'0 0.4
2018-Apr-09 08:29S 27°22' E 153°10'1 0.1
2018-Apr-08 21:50S 27°23' E 153°10'1 1.7
2018-Apr-08 21:08S 27°22' E 153°10'0 0.7
2018-Apr-08 21:00S 27°22' E 153°10'  

Dump ship's entire track history